La Salle, Illinois
Current Conditions -  °F | °C
As of 2:55 AM on Saturday 29 Nov 2014 (Local Time) from KVYS Reporting Station
Clear Clear  
Wind Chill: -4°   Ceiling: Unl
Heat Index:   Visibility: 10mi
Dew Point:   Wind: 13mph
Humidity: 89%   Direction: 170°S
Pressure: 29.77"   Gusts: NA
Location:  41.33°N, 89.09°W
Report Text: KVYS 290855Z AUTO 17011KT 10SM CLR 01/00 A2977 RMK AO2 T00141002
Loading
Personal Weather Stations






























Interactive Weather Map New forecast layout! Learn more

10-Day Weather Forecast

Advertisements
Track Severe Weather on mobile